sensor_id;sensor_type;location;lat;lon;timestamp;temperature;humidity
61641;HTU21D;62201;49.966;8.342;2023-03-23T00:01:45;14.21;59.23
61641;HTU21D;62201;49.966;8.342;2023-03-23T00:04:10;14.20;59.28
61641;HTU21D;62201;49.966;8.342;2023-03-23T00:06:38;14.22;59.38
61641;HTU21D;62201;49.966;8.342;2023-03-23T00:09:04;14.18;59.48
61641;HTU21D;62201;49.966;8.342;2023-03-23T00:11:32;14.21;59.43
61641;HTU21D;62201;49.966;8.342;2023-03-23T00:13:59;14.19;59.54
61641;HTU21D;62201;49.966;8.342;2023-03-23T00:16:27;14.14;59.68
61641;HTU21D;62201;49.966;8.342;2023-03-23T00:19:02;14.13;59.83
61641;HTU21D;62201;49.966;8.342;2023-03-23T00:21:30;14.09;60.08
61641;HTU21D;62201;49.966;8.342;2023-03-23T00:26:29;14.03;60.29
61641;HTU21D;62201;49.966;8.342;2023-03-23T00:29:02;13.99;60.51
61641;HTU21D;62201;49.966;8.342;2023-03-23T00:31:29;13.97;60.60
61641;HTU21D;62201;49.966;8.342;2023-03-23T00:33:58;13.99;60.54
61641;HTU21D;62201;49.966;8.342;2023-03-23T00:36:26;13.95;60.73
61641;HTU21D;62201;49.966;8.342;2023-03-23T00:38:52;13.93;60.83
61641;HTU21D;62201;49.966;8.342;2023-03-23T00:41:17;13.91;60.90
61641;HTU21D;62201;49.966;8.342;2023-03-23T00:43:43;13.89;61.03
61641;HTU21D;62201;49.966;8.342;2023-03-23T00:46:08;13.89;61.12
61641;HTU21D;62201;49.966;8.342;2023-03-23T00:48:36;13.84;61.39
61641;HTU21D;62201;49.966;8.342;2023-03-23T00:51:03;13.85;61.33
61641;HTU21D;62201;49.966;8.342;2023-03-23T00:53:37;13.83;61.44
61641;HTU21D;62201;49.966;8.342;2023-03-23T00:56:03;13.85;61.38
61641;HTU21D;62201;49.966;8.342;2023-03-23T00:58:28;13.86;61.31
61641;HTU21D;62201;49.966;8.342;2023-03-23T01:00:54;13.84;61.34
61641;HTU21D;62201;49.966;8.342;2023-03-23T01:03:19;13.82;61.49
61641;HTU21D;62201;49.966;8.342;2023-03-23T01:05:45;13.79;61.69
61641;HTU21D;62201;49.966;8.342;2023-03-23T01:08:13;13.81;61.48
61641;HTU21D;62201;49.966;8.342;2023-03-23T01:10:38;13.80;61.36
61641;HTU21D;62201;49.966;8.342;2023-03-23T01:13:05;13.79;61.51
61641;HTU21D;62201;49.966;8.342;2023-03-23T01:15:30;13.80;61.44
61641;HTU21D;62201;49.966;8.342;2023-03-23T01:17:56;13.81;61.38
61641;HTU21D;62201;49.966;8.342;2023-03-23T01:20:23;13.80;61.41
61641;HTU21D;62201;49.966;8.342;2023-03-23T01:22:48;13.79;61.51
61641;HTU21D;62201;49.966;8.342;2023-03-23T01:25:14;13.82;61.16
61641;HTU21D;62201;49.966;8.342;2023-03-23T01:27:40;13.90;60.58
61641;HTU21D;62201;49.966;8.342;2023-03-23T01:30:08;13.98;60.26
61641;HTU21D;62201;49.966;8.342;2023-03-23T01:32:35;14.12;59.77
61641;HTU21D;62201;49.966;8.342;2023-03-23T01:35:00;14.21;58.84
61641;HTU21D;62201;49.966;8.342;2023-03-23T01:37:26;14.34;58.03
61641;HTU21D;62201;49.966;8.342;2023-03-23T01:39:53;14.40;58.22
61641;HTU21D;62201;49.966;8.342;2023-03-23T01:42:24;14.45;57.90
61641;HTU21D;62201;49.966;8.342;2023-03-23T01:47:16;14.47;57.79
61641;HTU21D;62201;49.966;8.342;2023-03-23T01:49:46;14.44;58.29
61641;HTU21D;62201;49.966;8.342;2023-03-23T01:52:21;14.47;58.13
61641;HTU21D;62201;49.966;8.342;2023-03-23T01:54:49;14.47;58.06
61641;HTU21D;62201;49.966;8.342;2023-03-23T01:57:17;14.47;58.15
61641;HTU21D;62201;49.966;8.342;2023-03-23T01:59:45;14.45;58.10
61641;HTU21D;62201;49.966;8.342;2023-03-23T02:02:14;14.43;58.11
61641;HTU21D;62201;49.966;8.342;2023-03-23T02:04:40;14.40;58.43
61641;HTU21D;62201;49.966;8.342;2023-03-23T02:07:08;14.34;58.73
61641;HTU21D;62201;49.966;8.342;2023-03-23T02:09:34;14.32;58.92
61641;HTU21D;62201;49.966;8.342;2023-03-23T02:11:59;14.25;59.22
61641;HTU21D;62201;49.966;8.342;2023-03-23T02:14:26;14.27;59.10
61641;HTU21D;62201;49.966;8.342;2023-03-23T02:17:07;14.35;59.09
61641;HTU21D;62201;49.966;8.342;2023-03-23T02:24:51;14.28;59.43
61641;HTU21D;62201;49.966;8.342;2023-03-23T02:27:36;14.23;59.89
61641;HTU21D;62201;49.966;8.342;2023-03-23T02:30:31;14.12;60.71
61641;HTU21D;62201;49.966;8.342;2023-03-23T02:35:53;13.98;61.67
61641;HTU21D;62201;49.966;8.342;2023-03-23T02:38:37;13.89;63.51
61641;HTU21D;62201;49.966;8.342;2023-03-23T02:41:04;13.75;64.34
61641;HTU21D;62201;49.966;8.342;2023-03-23T02:43:34;13.60;65.75
61641;HTU21D;62201;49.966;8.342;2023-03-23T02:46:05;13.47;66.63
61641;HTU21D;62201;49.966;8.342;2023-03-23T02:48:33;13.38;67.45
61641;HTU21D;62201;49.966;8.342;2023-03-23T02:51:00;13.29;69.05
61641;HTU21D;62201;49.966;8.342;2023-03-23T02:53:27;13.25;68.16
61641;HTU21D;62201;49.966;8.342;2023-03-23T02:55:54;13.26;68.73
61641;HTU21D;62201;49.966;8.342;2023-03-23T02:58:21;13.23;69.01
61641;HTU21D;62201;49.966;8.342;2023-03-23T03:00:49;13.29;69.28
61641;HTU21D;62201;49.966;8.342;2023-03-23T03:03:21;13.31;69.23
61641;HTU21D;62201;49.966;8.342;2023-03-23T03:08:39;13.29;69.14
61641;HTU21D;62201;49.966;8.342;2023-03-23T03:11:12;13.29;69.26
61641;HTU21D;62201;49.966;8.342;2023-03-23T03:13:50;13.27;69.58
61641;HTU21D;62201;49.966;8.342;2023-03-23T03:16:38;13.23;69.87
61641;HTU21D;62201;49.966;8.342;2023-03-23T03:19:12;13.21;68.87
61641;HTU21D;62201;49.966;8.342;2023-03-23T03:21:42;13.22;69.93
61641;HTU21D;62201;49.966;8.342;2023-03-23T03:24:10;13.18;70.75
61641;HTU21D;62201;49.966;8.342;2023-03-23T03:26:44;13.15;71.93
61641;HTU21D;62201;49.966;8.342;2023-03-23T03:29:11;13.04;72.64
61641;HTU21D;62201;49.966;8.342;2023-03-23T03:31:39;12.97;73.45
61641;HTU21D;62201;49.966;8.342;2023-03-23T03:34:06;12.86;74.69
61641;HTU21D;62201;49.966;8.342;2023-03-23T03:36:33;12.73;77.56
61641;HTU21D;62201;49.966;8.342;2023-03-23T03:39:02;12.66;80.63
61641;HTU21D;62201;49.966;8.342;2023-03-23T03:41:29;12.58;80.04
61641;HTU21D;62201;49.966;8.342;2023-03-23T03:43:55;12.47;82.60
61641;HTU21D;62201;49.966;8.342;2023-03-23T03:46:20;12.45;82.33
61641;HTU21D;62201;49.966;8.342;2023-03-23T03:48:46;12.40;83.57
61641;HTU21D;62201;49.966;8.342;2023-03-23T03:51:11;12.36;83.50
61641;HTU21D;62201;49.966;8.342;2023-03-23T03:53:36;12.32;84.25
61641;HTU21D;62201;49.966;8.342;2023-03-23T03:56:02;12.28;85.06
61641;HTU21D;62201;49.966;8.342;2023-03-23T03:58:28;12.26;85.42
61641;HTU21D;62201;49.966;8.342;2023-03-23T04:00:57;12.25;86.02
61641;HTU21D;62201;49.966;8.342;2023-03-23T04:03:23;12.21;89.22
61641;HTU21D;62201;49.966;8.342;2023-03-23T04:05:50;12.14;90.11
61641;HTU21D;62201;49.966;8.342;2023-03-23T04:08:16;12.12;89.97
61641;HTU21D;62201;49.966;8.342;2023-03-23T04:10:41;12.13;89.70
61641;HTU21D;62201;49.966;8.342;2023-03-23T04:13:07;12.14;89.15
61641;HTU21D;62201;49.966;8.342;2023-03-23T04:15:32;12.16;89.77
61641;HTU21D;62201;49.966;8.342;2023-03-23T04:17:57;12.15;90.31
61641;HTU21D;62201;49.966;8.342;2023-03-23T04:20:24;12.10;92.34
61641;HTU21D;62201;49.966;8.342;2023-03-23T04:22:50;12.08;92.00
61641;HTU21D;62201;49.966;8.342;2023-03-23T04:25:18;12.16;90.81
61641;HTU21D;62201;49.966;8.342;2023-03-23T04:27:46;12.25;85.67
61641;HTU21D;62201;49.966;8.342;2023-03-23T04:30:21;12.37;87.15
61641;HTU21D;62201;49.966;8.342;2023-03-23T04:32:48;12.53;81.95
61641;HTU21D;62201;49.966;8.342;2023-03-23T04:35:17;12.81;78.59
61641;HTU21D;62201;49.966;8.342;2023-03-23T04:37:43;13.00;76.27
61641;HTU21D;62201;49.966;8.342;2023-03-23T04:40:09;13.26;74.02
61641;HTU21D;62201;49.966;8.342;2023-03-23T04:42:40;13.46;72.64
61641;HTU21D;62201;49.966;8.342;2023-03-23T04:45:07;13.53;72.38
61641;HTU21D;62201;49.966;8.342;2023-03-23T04:47:35;13.60;71.46
61641;HTU21D;62201;49.966;8.342;2023-03-23T04:50:14;13.63;70.71
61641;HTU21D;62201;49.966;8.342;2023-03-23T04:52:39;13.64;71.42
61641;HTU21D;62201;49.966;8.342;2023-03-23T04:55:10;13.62;72.06
61641;HTU21D;62201;49.966;8.342;2023-03-23T04:57:35;13.60;71.76
61641;HTU21D;62201;49.966;8.342;2023-03-23T05:00:02;13.54;72.48
61641;HTU21D;62201;49.966;8.342;2023-03-23T05:02:37;13.46;72.70
61641;HTU21D;62201;49.966;8.342;2023-03-23T05:05:05;13.55;72.34
61641;HTU21D;62201;49.966;8.342;2023-03-23T05:07:30;13.61;72.09
61641;HTU21D;62201;49.966;8.342;2023-03-23T05:09:56;13.64;71.64
61641;HTU21D;62201;49.966;8.342;2023-03-23T05:12:21;13.75;71.02
61641;HTU21D;62201;49.966;8.342;2023-03-23T05:14:46;13.74;71.21
61641;HTU21D;62201;49.966;8.342;2023-03-23T05:17:12;13.76;71.55
61641;HTU21D;62201;49.966;8.342;2023-03-23T05:19:44;13.76;71.75
61641;HTU21D;62201;49.966;8.342;2023-03-23T05:22:15;13.77;72.00
61641;HTU21D;62201;49.966;8.342;2023-03-23T05:24:41;13.73;72.38
61641;HTU21D;62201;49.966;8.342;2023-03-23T05:27:10;13.75;72.37
61641;HTU21D;62201;49.966;8.342;2023-03-23T05:29:36;13.71;73.48
61641;HTU21D;62201;49.966;8.342;2023-03-23T05:32:03;13.62;74.09
61641;HTU21D;62201;49.966;8.342;2023-03-23T05:34:29;13.54;74.56
61641;HTU21D;62201;49.966;8.342;2023-03-23T05:36:58;13.50;75.31
61641;HTU21D;62201;49.966;8.342;2023-03-23T05:39:23;13.41;75.94
61641;HTU21D;62201;49.966;8.342;2023-03-23T05:41:49;13.37;76.18
61641;HTU21D;62201;49.966;8.342;2023-03-23T05:44:15;13.36;76.87
61641;HTU21D;62201;49.966;8.342;2023-03-23T05:46:40;13.32;77.75
61641;HTU21D;62201;49.966;8.342;2023-03-23T05:49:05;13.25;78.13
61641;HTU21D;62201;49.966;8.342;2023-03-23T05:51:31;13.16;78.20
61641;HTU21D;62201;49.966;8.342;2023-03-23T05:53:56;13.10;79.85
61641;HTU21D;62201;49.966;8.342;2023-03-23T05:56:22;13.07;80.20
61641;HTU21D;62201;49.966;8.342;2023-03-23T05:58:47;13.07;80.31
61641;HTU21D;62201;49.966;8.342;2023-03-23T06:01:12;13.00;80.59
61641;HTU21D;62201;49.966;8.342;2023-03-23T06:03:41;13.03;80.85
61641;HTU21D;62201;49.966;8.342;2023-03-23T06:06:06;13.00;81.14
61641;HTU21D;62201;49.966;8.342;2023-03-23T06:08:33;12.95;81.57
61641;HTU21D;62201;49.966;8.342;2023-03-23T06:10:58;12.93;81.58
61641;HTU21D;62201;49.966;8.342;2023-03-23T06:13:23;12.89;83.07
61641;HTU21D;62201;49.966;8.342;2023-03-23T06:15:49;12.86;82.69
61641;HTU21D;62201;49.966;8.342;2023-03-23T06:18:15;12.87;82.95
61641;HTU21D;62201;49.966;8.342;2023-03-23T06:20:41;12.84;83.88
61641;HTU21D;62201;49.966;8.342;2023-03-23T06:23:08;12.85;84.77
61641;HTU21D;62201;49.966;8.342;2023-03-23T06:25:34;12.90;84.16
61641;HTU21D;62201;49.966;8.342;2023-03-23T06:27:59;12.92;84.70
61641;HTU21D;62201;49.966;8.342;2023-03-23T06:30:25;12.93;85.14
61641;HTU21D;62201;49.966;8.342;2023-03-23T06:32:52;12.93;86.52
61641;HTU21D;62201;49.966;8.342;2023-03-23T06:35:18;13.02;85.72
61641;HTU21D;62201;49.966;8.342;2023-03-23T06:37:44;13.11;85.44
61641;HTU21D;62201;49.966;8.342;2023-03-23T06:40:09;13.10;85.41
61641;HTU21D;62201;49.966;8.342;2023-03-23T06:42:36;13.14;85.44
61641;HTU21D;62201;49.966;8.342;2023-03-23T06:45:03;13.18;85.42
61641;HTU21D;62201;49.966;8.342;2023-03-23T06:47:29;13.22;85.42
61641;HTU21D;62201;49.966;8.342;2023-03-23T06:49:55;13.26;85.40
61641;HTU21D;62201;49.966;8.342;2023-03-23T06:52:21;13.31;85.51
61641;HTU21D;62201;49.966;8.342;2023-03-23T06:54:51;13.32;85.51
61641;HTU21D;62201;49.966;8.342;2023-03-23T06:57:17;13.31;85.89
61641;HTU21D;62201;49.966;8.342;2023-03-23T06:59:43;13.33;85.80
61641;HTU21D;62201;49.966;8.342;2023-03-23T07:02:10;13.29;86.96
61641;HTU21D;62201;49.966;8.342;2023-03-23T07:04:37;13.26;87.86
61641;HTU21D;62201;49.966;8.342;2023-03-23T07:07:03;13.27;88.63
61641;HTU21D;62201;49.966;8.342;2023-03-23T07:09:29;13.27;88.67
61641;HTU21D;62201;49.966;8.342;2023-03-23T07:11:54;13.26;89.56
61641;HTU21D;62201;49.966;8.342;2023-03-23T07:14:20;13.25;90.31
61641;HTU21D;62201;49.966;8.342;2023-03-23T07:16:47;13.26;90.83
61641;HTU21D;62201;49.966;8.342;2023-03-23T07:19:12;13.25;90.54
61641;HTU21D;62201;49.966;8.342;2023-03-23T07:21:37;13.23;90.84
61641;HTU21D;62201;49.966;8.342;2023-03-23T07:24:03;13.19;91.41
61641;HTU21D;62201;49.966;8.342;2023-03-23T07:26:28;13.17;91.48
61641;HTU21D;62201;49.966;8.342;2023-03-23T07:28:54;13.15;91.88
61641;HTU21D;62201;49.966;8.342;2023-03-23T07:31:20;13.14;91.45
61641;HTU21D;62201;49.966;8.342;2023-03-23T07:33:45;13.16;91.07
61641;HTU21D;62201;49.966;8.342;2023-03-23T07:36:11;13.17;90.98
61641;HTU21D;62201;49.966;8.342;2023-03-23T07:38:37;13.20;89.83
61641;HTU21D;62201;49.966;8.342;2023-03-23T07:41:04;13.23;89.78
61641;HTU21D;62201;49.966;8.342;2023-03-23T07:43:30;13.30;89.50
61641;HTU21D;62201;49.966;8.342;2023-03-23T07:45:55;13.32;89.17
61641;HTU21D;62201;49.966;8.342;2023-03-23T07:48:21;13.35;88.26
61641;HTU21D;62201;49.966;8.342;2023-03-23T07:50:47;13.37;87.44
61641;HTU21D;62201;49.966;8.342;2023-03-23T07:53:12;13.44;87.58
61641;HTU21D;62201;49.966;8.342;2023-03-23T07:55:38;13.47;87.15
61641;HTU21D;62201;49.966;8.342;2023-03-23T07:58:05;13.53;86.67
61641;HTU21D;62201;49.966;8.342;2023-03-23T08:00:31;13.53;86.66
61641;HTU21D;62201;49.966;8.342;2023-03-23T08:02:58;13.55;85.96
61641;HTU21D;62201;49.966;8.342;2023-03-23T08:05:25;13.56;86.32
61641;HTU21D;62201;49.966;8.342;2023-03-23T08:07:52;13.52;86.59
61641;HTU21D;62201;49.966;8.342;2023-03-23T08:10:21;13.55;86.51
61641;HTU21D;62201;49.966;8.342;2023-03-23T08:12:51;13.55;86.49
61641;HTU21D;62201;49.966;8.342;2023-03-23T08:15:18;13.56;86.21
61641;HTU21D;62201;49.966;8.342;2023-03-23T08:17:44;13.58;86.01
61641;HTU21D;62201;49.966;8.342;2023-03-23T08:20:12;13.53;85.99
61641;HTU21D;62201;49.966;8.342;2023-03-23T08:22:42;13.54;85.63
61641;HTU21D;62201;49.966;8.342;2023-03-23T08:25:11;13.55;86.08
61641;HTU21D;62201;49.966;8.342;2023-03-23T08:27:38;13.58;85.62
61641;HTU21D;62201;49.966;8.342;2023-03-23T08:30:11;13.55;86.32
61641;HTU21D;62201;49.966;8.342;2023-03-23T08:32:37;13.56;86.40
61641;HTU21D;62201;49.966;8.342;2023-03-23T08:35:03;13.58;86.39
61641;HTU21D;62201;49.966;8.342;2023-03-23T08:37:28;13.61;86.12
61641;HTU21D;62201;49.966;8.342;2023-03-23T08:39:55;13.59;86.40
61641;HTU21D;62201;49.966;8.342;2023-03-23T08:42:23;13.65;86.44
61641;HTU21D;62201;49.966;8.342;2023-03-23T08:44:48;13.69;86.19
61641;HTU21D;62201;49.966;8.342;2023-03-23T08:47:14;13.79;85.89
61641;HTU21D;62201;49.966;8.342;2023-03-23T08:49:39;13.94;85.42
61641;HTU21D;62201;49.966;8.342;2023-03-23T08:52:05;13.93;85.29
61641;HTU21D;62201;49.966;8.342;2023-03-23T08:54:30;14.05;84.23
61641;HTU21D;62201;49.966;8.342;2023-03-23T08:56:59;14.12;84.61
61641;HTU21D;62201;49.966;8.342;2023-03-23T08:59:25;14.20;83.61
61641;HTU21D;62201;49.966;8.342;2023-03-23T09:01:51;14.26;83.26
61641;HTU21D;62201;49.966;8.342;2023-03-23T09:04:17;14.37;82.29
61641;HTU21D;62201;49.966;8.342;2023-03-23T09:06:43;14.48;81.48
61641;HTU21D;62201;49.966;8.342;2023-03-23T09:09:09;14.56;81.57
61641;HTU21D;62201;49.966;8.342;2023-03-23T09:11:35;14.66;79.78
61641;HTU21D;62201;49.966;8.342;2023-03-23T09:14:03;14.74;78.98
61641;HTU21D;62201;49.966;8.342;2023-03-23T09:16:29;14.81;77.97
61641;HTU21D;62201;49.966;8.342;2023-03-23T09:18:54;14.99;77.95
61641;HTU21D;62201;49.966;8.342;2023-03-23T09:21:22;15.11;75.57
61641;HTU21D;62201;49.966;8.342;2023-03-23T09:23:48;15.23;73.79
61641;HTU21D;62201;49.966;8.342;2023-03-23T09:26:13;15.47;73.24
61641;HTU21D;62201;49.966;8.342;2023-03-23T09:28:39;15.65;72.83
61641;HTU21D;62201;49.966;8.342;2023-03-23T09:31:05;15.69;71.18
61641;HTU21D;62201;49.966;8.342;2023-03-23T09:33:30;15.83;69.70
61641;HTU21D;62201;49.966;8.342;2023-03-23T09:35:58;16.01;68.38
61641;HTU21D;62201;49.966;8.342;2023-03-23T09:38:24;16.13;66.54
61641;HTU21D;62201;49.966;8.342;2023-03-23T09:49:03;16.13;66.78
61641;HTU21D;62201;49.966;8.342;2023-03-23T09:51:53;15.80;67.43
61641;HTU21D;62201;49.966;8.342;2023-03-23T09:54:23;15.41;68.52
61641;HTU21D;62201;49.966;8.342;2023-03-23T09:56:50;15.03;69.61
61641;HTU21D;62201;49.966;8.342;2023-03-23T09:59:36;14.70;72.25
61641;HTU21D;62201;49.966;8.342;2023-03-23T10:02:16;14.57;76.66
61641;HTU21D;62201;49.966;8.342;2023-03-23T10:04:50;14.42;75.67
61641;HTU21D;62201;49.966;8.342;2023-03-23T10:07:20;14.38;76.91
61641;HTU21D;62201;49.966;8.342;2023-03-23T10:09:48;14.37;75.35
61641;HTU21D;62201;49.966;8.342;2023-03-23T10:12:21;14.29;74.20
61641;HTU21D;62201;49.966;8.342;2023-03-23T10:17:28;14.45;75.64
61641;HTU21D;62201;49.966;8.342;2023-03-23T10:20:21;14.56;74.22
61641;HTU21D;62201;49.966;8.342;2023-03-23T10:23:13;14.67;73.46
61641;HTU21D;62201;49.966;8.342;2023-03-23T10:28:17;14.72;72.91
61641;HTU21D;62201;49.966;8.342;2023-03-23T10:30:48;14.69;72.74
61641;HTU21D;62201;49.966;8.342;2023-03-23T10:36:05;14.74;74.86
61641;HTU21D;62201;49.966;8.342;2023-03-23T10:38:36;14.75;73.75
61641;HTU21D;62201;49.966;8.342;2023-03-23T10:41:09;14.79;73.44
61641;HTU21D;62201;49.966;8.342;2023-03-23T10:43:37;14.84;72.08
61641;HTU21D;62201;49.966;8.342;2023-03-23T10:46:19;14.95;70.24
61641;HTU21D;62201;49.966;8.342;2023-03-23T10:48:48;15.06;70.07
61641;HTU21D;62201;49.966;8.342;2023-03-23T10:51:19;15.21;70.03
61641;HTU21D;62201;49.966;8.342;2023-03-23T10:53:50;15.27;69.55
61641;HTU21D;62201;49.966;8.342;2023-03-23T10:56:24;15.47;69.61
61641;HTU21D;62201;49.966;8.342;2023-03-23T10:58:51;15.69;68.73
61641;HTU21D;62201;49.966;8.342;2023-03-23T11:01:19;15.73;68.38
61641;HTU21D;62201;49.966;8.342;2023-03-23T11:03:47;15.82;67.42
61641;HTU21D;62201;49.966;8.342;2023-03-23T11:06:27;15.90;67.69
61641;HTU21D;62201;49.966;8.342;2023-03-23T11:09:00;16.22;66.35
61641;HTU21D;62201;49.966;8.342;2023-03-23T11:11:28;16.32;65.01
61641;HTU21D;62201;49.966;8.342;2023-03-23T11:14:00;16.49;65.29
61641;HTU21D;62201;49.966;8.342;2023-03-23T11:16:31;16.36;64.79
61641;HTU21D;62201;49.966;8.342;2023-03-23T11:19:00;16.43;64.98
61641;HTU21D;62201;49.966;8.342;2023-03-23T11:21:26;16.21;66.33
61641;HTU21D;62201;49.966;8.342;2023-03-23T11:23:58;16.05;66.57
61641;HTU21D;62201;49.966;8.342;2023-03-23T11:26:28;15.83;66.24
61641;HTU21D;62201;49.966;8.342;2023-03-23T11:31:44;15.43;68.52
61641;HTU21D;62201;49.966;8.342;2023-03-23T11:36:43;15.23;68.85
61641;HTU21D;62201;49.966;8.342;2023-03-23T11:39:56;15.08;69.97
61641;HTU21D;62201;49.966;8.342;2023-03-23T11:48:03;15.22;70.65
61641;HTU21D;62201;49.966;8.342;2023-03-23T11:51:01;15.86;68.51
61641;HTU21D;62201;49.966;8.342;2023-03-23T11:56:34;15.96;67.99
61641;HTU21D;62201;49.966;8.342;2023-03-23T11:59:00;15.92;69.26
61641;HTU21D;62201;49.966;8.342;2023-03-23T12:08:05;15.73;70.45
61641;HTU21D;62201;49.966;8.342;2023-03-23T12:10:43;15.68;70.89
61641;HTU21D;62201;49.966;8.342;2023-03-23T12:13:30;15.67;70.83
61641;HTU21D;62201;49.966;8.342;2023-03-23T12:16:20;16.02;69.68
61641;HTU21D;62201;49.966;8.342;2023-03-23T12:21:43;15.99;68.49
61641;HTU21D;62201;49.966;8.342;2023-03-23T12:27:09;15.78;68.36
61641;HTU21D;62201;49.966;8.342;2023-03-23T12:29:54;15.61;68.85
61641;HTU21D;62201;49.966;8.342;2023-03-23T12:38:01;15.51;69.77
61641;HTU21D;62201;49.966;8.342;2023-03-23T12:43:28;15.81;68.48
61641;HTU21D;62201;49.966;8.342;2023-03-23T12:46:05;15.90;68.65
61641;HTU21D;62201;49.966;8.342;2023-03-23T12:48:42;16.07;67.33
61641;HTU21D;62201;49.966;8.342;2023-03-23T12:51:27;16.27;66.33
61641;HTU21D;62201;49.966;8.342;2023-03-23T12:56:37;16.12;66.59
61641;HTU21D;62201;49.966;8.342;2023-03-23T12:59:39;16.06;67.29
61641;HTU21D;62201;49.966;8.342;2023-03-23T13:02:24;16.18;67.25
61641;HTU21D;62201;49.966;8.342;2023-03-23T13:04:57;16.34;66.54
61641;HTU21D;62201;49.966;8.342;2023-03-23T13:07:29;16.66;65.37
61641;HTU21D;62201;49.966;8.342;2023-03-23T13:10:03;16.64;65.66
61641;HTU21D;62201;49.966;8.342;2023-03-23T13:12:30;16.54;65.27
61641;HTU21D;62201;49.966;8.342;2023-03-23T13:18:02;16.65;64.52
61641;HTU21D;62201;49.966;8.342;2023-03-23T13:20:47;16.50;64.98
61641;HTU21D;62201;49.966;8.342;2023-03-23T13:23:39;16.43;65.41
61641;HTU21D;62201;49.966;8.342;2023-03-23T13:31:38;16.03;67.32
61641;HTU21D;62201;49.966;8.342;2023-03-23T13:36:41;15.69;67.87
61641;HTU21D;62201;49.966;8.342;2023-03-23T13:39:19;15.61;68.12
61641;HTU21D;62201;49.966;8.342;2023-03-23T13:41:59;15.53;68.87
61641;HTU21D;62201;49.966;8.342;2023-03-23T13:44:26;15.42;70.24
61641;HTU21D;62201;49.966;8.342;2023-03-23T13:46:57;15.22;72.45
61641;HTU21D;62201;49.966;8.342;2023-03-23T13:49:31;15.09;73.61
61641;HTU21D;62201;49.966;8.342;2023-03-23T13:55:29;15.51;71.35
61641;HTU21D;62201;49.966;8.342;2023-03-23T14:03:26;16.01;67.59
61641;HTU21D;62201;49.966;8.342;2023-03-23T14:11:01;16.04;66.28
61641;HTU21D;62201;49.966;8.342;2023-03-23T14:16:24;15.80;67.72
61641;HTU21D;62201;49.966;8.342;2023-03-23T14:18:57;15.63;69.21
61641;HTU21D;62201;49.966;8.342;2023-03-23T14:21:32;15.48;70.13
61641;HTU21D;62201;49.966;8.342;2023-03-23T14:24:29;15.38;70.73
61641;HTU21D;62201;49.966;8.342;2023-03-23T14:27:22;15.29;71.09
61641;HTU21D;62201;49.966;8.342;2023-03-23T14:29:58;15.29;71.22
61641;HTU21D;62201;49.966;8.342;2023-03-23T14:32:24;15.26;71.18
61641;HTU21D;62201;49.966;8.342;2023-03-23T14:34:51;15.29;69.75
61641;HTU21D;62201;49.966;8.342;2023-03-23T14:37:17;15.30;69.61
61641;HTU21D;62201;49.966;8.342;2023-03-23T14:39:48;15.36;69.34
61641;HTU21D;62201;49.966;8.342;2023-03-23T14:42:16;15.34;69.13
61641;HTU21D;62201;49.966;8.342;2023-03-23T14:44:50;15.39;68.75
61641;HTU21D;62201;49.966;8.342;2023-03-23T14:49:47;15.42;68.56
61641;HTU21D;62201;49.966;8.342;2023-03-23T14:52:15;15.45;68.49
61641;HTU21D;62201;49.966;8.342;2023-03-23T14:54:41;15.52;68.20
61641;HTU21D;62201;49.966;8.342;2023-03-23T14:57:17;15.52;68.22
61641;HTU21D;62201;49.966;8.342;2023-03-23T14:59:45;15.53;68.26
61641;HTU21D;62201;49.966;8.342;2023-03-23T15:02:18;15.56;68.21
61641;HTU21D;62201;49.966;8.342;2023-03-23T15:04:48;15.53;68.08
61641;HTU21D;62201;49.966;8.342;2023-03-23T15:07:15;15.53;68.61
61641;HTU21D;62201;49.966;8.342;2023-03-23T15:09:44;15.51;68.40
61641;HTU21D;62201;49.966;8.342;2023-03-23T15:12:20;15.45;68.52
61641;HTU21D;62201;49.966;8.342;2023-03-23T15:14:49;15.39;69.27
61641;HTU21D;62201;49.966;8.342;2023-03-23T15:17:24;15.44;68.97
61641;HTU21D;62201;49.966;8.342;2023-03-23T15:19:50;15.41;69.00
61641;HTU21D;62201;49.966;8.342;2023-03-23T15:22:20;15.41;69.20
61641;HTU21D;62201;49.966;8.342;2023-03-23T15:24:46;15.40;69.87
61641;HTU21D;62201;49.966;8.342;2023-03-23T15:27:24;15.39;69.74
61641;HTU21D;62201;49.966;8.342;2023-03-23T15:29:57;15.40;69.56
61641;HTU21D;62201;49.966;8.342;2023-03-23T15:32:38;15.38;69.97
61641;HTU21D;62201;49.966;8.342;2023-03-23T15:35:10;15.33;70.21
61641;HTU21D;62201;49.966;8.342;2023-03-23T15:37:43;15.27;71.13
61641;HTU21D;62201;49.966;8.342;2023-03-23T15:40:21;15.19;72.03
61641;HTU21D;62201;49.966;8.342;2023-03-23T15:42:47;15.13;72.39
61641;HTU21D;62201;49.966;8.342;2023-03-23T15:47:46;14.93;78.58
61641;HTU21D;62201;49.966;8.342;2023-03-23T15:50:41;14.70;83.05
61641;HTU21D;62201;49.966;8.342;2023-03-23T15:55:46;14.50;89.99
61641;HTU21D;62201;49.966;8.342;2023-03-23T15:58:12;14.35;92.00
61641;HTU21D;62201;49.966;8.342;2023-03-23T16:00:39;14.18;95.41
61641;HTU21D;62201;49.966;8.342;2023-03-23T16:03:10;14.08;95.97
61641;HTU21D;62201;49.966;8.342;2023-03-23T16:05:35;13.97;97.32
61641;HTU21D;62201;49.966;8.342;2023-03-23T16:08:01;13.92;98.71
61641;HTU21D;62201;49.966;8.342;2023-03-23T16:10:28;13.91;98.83
61641;HTU21D;62201;49.966;8.342;2023-03-23T16:12:54;13.89;99.43
61641;HTU21D;62201;49.966;8.342;2023-03-23T16:15:21;13.91;99.91
61641;HTU21D;62201;49.966;8.342;2023-03-23T16:17:47;13.95;98.64
61641;HTU21D;62201;49.966;8.342;2023-03-23T16:20:16;13.98;99.36
61641;HTU21D;62201;49.966;8.342;2023-03-23T16:22:42;13.96;98.45
61641;HTU21D;62201;49.966;8.342;2023-03-23T16:25:08;13.98;99.76
61641;HTU21D;62201;49.966;8.342;2023-03-23T16:27:35;13.98;98.75
61641;HTU21D;62201;49.966;8.342;2023-03-23T16:30:09;13.98;98.36
61641;HTU21D;62201;49.966;8.342;2023-03-23T16:32:36;13.99;98.15
61641;HTU21D;62201;49.966;8.342;2023-03-23T16:35:02;13.96;98.32
61641;HTU21D;62201;49.966;8.342;2023-03-23T16:37:27;13.98;98.40
61641;HTU21D;62201;49.966;8.342;2023-03-23T16:39:57;13.97;98.16
61641;HTU21D;62201;49.966;8.342;2023-03-23T16:42:22;13.96;97.93
61641;HTU21D;62201;49.966;8.342;2023-03-23T16:44:48;13.94;98.39
61641;HTU21D;62201;49.966;8.342;2023-03-23T16:47:15;13.94;97.35
61641;HTU21D;62201;49.966;8.342;2023-03-23T16:49:42;13.93;96.88
61641;HTU21D;62201;49.966;8.342;2023-03-23T16:52:07;13.92;96.52
61641;HTU21D;62201;49.966;8.342;2023-03-23T16:54:33;13.90;96.39
61641;HTU21D;62201;49.966;8.342;2023-03-23T16:56:58;13.86;96.23
61641;HTU21D;62201;49.966;8.342;2023-03-23T16:59:26;13.84;95.99
61641;HTU21D;62201;49.966;8.342;2023-03-23T17:01:52;13.82;95.72
61641;HTU21D;62201;49.966;8.342;2023-03-23T17:04:17;13.79;95.14
61641;HTU21D;62201;49.966;8.342;2023-03-23T17:06:43;13.76;95.20
61641;HTU21D;62201;49.966;8.342;2023-03-23T17:09:08;13.73;95.06
61641;HTU21D;62201;49.966;8.342;2023-03-23T17:11:34;13.73;94.66
61641;HTU21D;62201;49.966;8.342;2023-03-23T17:13:59;13.70;94.14